Long Lake, Minnesota
Current Conditions -  °F | °C
As of 7:53 AM on Friday 24 Oct 2014 (Local Time) from KMIC Reporting Station
Broken Clouds Broken Clouds  
Wind Chill: 50°   Ceiling: 3600
Heat Index: 50°   Visibility: 9mi
Dew Point: 45°   Wind: 7mph
Humidity: 83%   Direction: 130°SE
Pressure: 29.87"   Gusts: NA
Location:  44.99°N, 93.57°W
Report Text: KMIC 241253Z 13006KT 9SM BKN036 10/07 A2987 RMK AO2 SLP118 T01000072
Loading
Personal Weather Stations






























Interactive Weather Map
Tropical Storm Tracking
New forecast layout! Learn more

10-Day Weather Forecast

Advertisements
Track Severe Weather on mobile